Time;durP1;ratioP1;P1;durP2;ratioP2;P2;SDS_P1;SDS_P2;PMS_P1;PMS_P2;Temp;Humidity;BMP_temperature;BMP_pressure;BME280_temperature;BME280_humidity;BME280_pressure;Samples;Min_cycle;Max_cycle;Signal;HPM_P1;HPM_P2
2022/03/05 00:00:40;;;;;;;;;20.00;18.00;;;;;21.76;46.67;101645.44;112624;1245;21157;-81
2022/03/05 00:03:06;;;;;;;;;21.00;17.00;;;;;21.75;46.67;101645.70;112636;1245;19660;-81
2022/03/05 00:05:32;;;;;;;;;20.50;19.00;;;;;21.76;46.48;101650.34;112649;1245;20043;-81
2022/03/05 00:07:58;;;;;;;;;18.00;17.00;;;;;21.76;46.44;101645.64;112557;1244;19260;-81
2022/03/05 00:10:24;;;;;;;;;20.00;17.50;;;;;21.76;46.36;101649.98;112616;1245;19754;-82
2022/03/05 00:12:50;;;;;;;;;21.00;18.00;;;;;21.76;46.44;101645.81;112657;1245;20207;-82
2022/03/05 00:15:16;;;;;;;;;20.50;17.50;;;;;21.77;46.36;101651.72;112631;1245;19215;-82
2022/03/05 00:17:42;;;;;;;;;20.00;16.00;;;;;21.76;46.45;101651.79;112449;1246;19647;-80
2022/03/05 00:20:08;;;;;;;;;24.00;20.00;;;;;21.76;46.29;101649.80;112643;1245;21732;-82
2022/03/05 00:22:34;;;;;;;;;21.50;17.50;;;;;21.75;46.34;101647.14;112486;1245;19834;-82
2022/03/05 00:25:00;;;;;;;;;17.50;17.00;;;;;21.76;46.32;101651.61;112642;1245;22947;-81
2022/03/05 00:27:25;;;;;;;;;17.00;16.00;;;;;21.75;46.28;101645.50;112616;1244;20019;-81
2022/03/05 00:29:52;;;;;;;;;18.50;17.50;;;;;21.76;46.10;101652.17;112475;1245;19125;-81
2022/03/05 00:32:18;;;;;;;;;17.67;16.33;;;;;21.75;46.09;101650.44;112424;1245;19639;-82
2022/03/05 00:34:44;;;;;;;;;17.00;16.00;;;;;21.75;46.09;101647.20;112676;1245;20181;-81
2022/03/05 00:37:10;;;;;;;;;17.50;17.00;;;;;21.76;46.30;101648.19;112623;1244;19037;-80
2022/03/05 00:39:36;;;;;;;;;19.00;15.67;;;;;21.75;46.08;101646.41;112631;1245;19594;-81
2022/03/05 00:42:02;;;;;;;;;16.00;16.00;;;;;21.75;46.14;101648.22;112647;1245;19987;-82
2022/03/05 00:44:28;;;;;;;;;18.00;17.00;;;;;21.75;46.00;101650.13;112638;1245;19151;-82
2022/03/05 00:46:54;;;;;;;;;21.50;19.00;;;;;21.74;45.96;101650.23;112668;1245;19449;-81
2022/03/05 00:49:20;;;;;;;;;21.00;17.00;;;;;21.74;46.13;101648.52;112500;1244;22627;-81
2022/03/05 00:51:46;;;;;;;;;15.00;14.00;;;;;21.74;45.74;101650.20;112562;1244;23266;-81
2022/03/05 00:54:12;;;;;;;;;15.00;14.00;;;;;21.75;45.84;101651.05;112652;1245;21765;-81
2022/03/05 00:56:38;;;;;;;;;15.00;14.00;;;;;21.73;45.79;101647.91;112622;1243;22436;-83
2022/03/05 00:59:04;;;;;;;;;16.00;13.50;;;;;21.73;45.79;101646.89;112659;1245;19211;-81
2022/03/05 01:01:30;;;;;;;;;17.00;15.00;;;;;21.73;45.74;101648.86;112629;1244;19231;-80
2022/03/05 01:03:56;;;;;;;;;16.00;14.00;;;;;21.73;45.75;101651.21;112630;1245;20380;-81
2022/03/05 01:06:22;;;;;;;;;18.50;15.50;;;;;21.72;45.65;101651.80;112617;1244;20744;-79
2022/03/05 01:08:48;;;;;;;;;17.50;15.00;;;;;21.72;45.70;101650.74;112018;1245;785401;-81
2022/03/05 01:11:16;;;;;;;;;16.00;14.00;;;;;21.72;45.67;101648.59;112626;1244;20136;-81
2022/03/05 01:13:42;;;;;;;;;13.67;13.00;;;;;21.72;45.51;101654.23;112489;1245;19194;-82
2022/03/05 01:16:07;;;;;;;;;18.00;17.00;;;;;21.72;45.62;101652.22;112655;1245;21600;-81
2022/03/05 01:18:34;;;;;;;;;14.00;14.00;;;;;21.72;45.67;101651.66;112638;1244;19968;-81
2022/03/05 01:21:00;;;;;;;;;17.33;16.00;;;;;21.72;45.54;101652.24;112488;1245;19228;-81
2022/03/05 01:23:25;;;;;;;;;17.00;16.50;;;;;21.71;45.64;101647.30;112669;1245;19438;-81
2022/03/05 01:25:51;;;;;;;;;17.00;16.00;;;;;21.72;45.57;101653.54;112637;1245;20137;-81
2022/03/05 01:28:17;;;;;;;;;14.00;14.00;;;;;21.71;45.44;101651.77;112445;1246;19114;-81
2022/03/05 01:30:43;;;;;;;;;17.00;13.00;;;;;21.72;45.57;101651.91;112484;1245;20831;-81
2022/03/05 01:33:09;;;;;;;;;18.00;14.00;;;;;21.71;45.36;101652.48;112492;1245;21808;-81
2022/03/05 01:35:35;;;;;;;;;15.00;14.00;;;;;21.72;45.49;101649.38;112636;1244;22479;-80
2022/03/05 01:38:01;;;;;;;;;14.50;13.00;;;;;21.71;45.50;101647.40;112653;1244;19403;-81
2022/03/05 01:40:27;;;;;;;;;17.00;14.00;;;;;21.72;45.37;101649.55;112621;1245;21391;-80
2022/03/05 01:42:53;;;;;;;;;17.50;17.50;;;;;21.71;45.59;101651.41;112641;1245;19237;-80
2022/03/05 01:45:19;;;;;;;;;17.00;15.00;;;;;21.69;45.37;101647.80;112626;1245;19288;-81
2022/03/05 01:47:45;;;;;;;;;16.00;15.00;;;;;21.70;45.31;101651.31;112632;1245;23354;-83
2022/03/05 01:50:11;;;;;;;;;16.33;16.33;;;;;21.70;45.13;101654.98;112653;1244;19550;-82
2022/03/05 01:52:37;;;;;;;;;14.33;13.33;;;;;21.70;45.21;101654.44;112680;1244;20146;-82
2022/03/05 01:55:03;;;;;;;;;14.00;14.00;;;;;21.70;45.20;101653.00;112675;1244;20536;-82
2022/03/05 01:57:29;;;;;;;;;13.00;13.00;;;;;21.68;45.18;101649.34;112616;1245;19842;-82
2022/03/05 01:59:55;;;;;;;;;15.00;14.00;;;;;21.68;45.17;101648.60;112641;1245;19648;-82
2022/03/05 02:02:21;;;;;;;;;16.67;14.67;;;;;21.69;45.12;101649.69;112615;1244;20168;-82
2022/03/05 02:04:47;;;;;;;;;15.50;14.00;;;;;21.68;44.95;101645.73;112648;1245;20027;-80
2022/03/05 02:07:14;;;;;;;;;13.00;10.67;;;;;21.67;45.01;101649.10;112659;1244;21092;-80
2022/03/05 02:09:40;;;;;;;;;16.00;13.67;;;;;21.67;44.98;101648.73;112584;1245;20314;-81
2022/03/05 02:12:06;;;;;;;;;12.50;12.00;;;;;21.67;44.80;101650.95;112491;1244;19082;-81
2022/03/05 02:14:32;;;;;;;;;15.00;13.50;;;;;21.68;44.86;101649.20;112453;1244;19760;-81
2022/03/05 02:16:58;;;;;;;;;13.00;12.33;;;;;21.69;44.83;101647.95;112633;1245;20247;-80
2022/03/05 02:19:24;;;;;;;;;17.00;13.50;;;;;21.69;44.92;101648.02;112614;1245;19976;-82
2022/03/05 02:21:50;;;;;;;;;14.00;14.00;;;;;21.69;44.88;101649.11;112595;1245;23251;-85
2022/03/05 02:24:31;;;;;;;;;17.00;13.00;;;;;21.69;44.97;101648.73;112616;1245;22252;-82
2022/03/05 02:26:57;;;;;;;;;12.00;10.00;;;;;21.67;44.90;101646.92;112627;1245;19264;-81
2022/03/05 02:29:23;;;;;;;;;16.00;14.00;;;;;21.68;44.71;101646.14;112680;1245;19368;-81
2022/03/05 02:31:49;;;;;;;;;16.50;13.00;;;;;21.68;44.76;101646.23;112676;1245;22948;-82
2022/03/05 02:34:14;;;;;;;;;14.00;12.00;;;;;21.67;44.83;101644.58;112657;1245;19521;-81
2022/03/05 02:36:40;;;;;;;;;13.00;12.00;;;;;21.66;44.67;101644.09;112625;1245;24033;-81
2022/03/05 02:39:06;;;;;;;;;12.50;12.00;;;;;21.67;44.57;101644.40;112619;1245;20058;-81
2022/03/05 02:41:32;;;;;;;;;12.50;11.00;;;;;21.66;44.65;101643.03;112629;1245;21667;-80
2022/03/05 02:43:59;;;;;;;;;13.00;12.50;;;;;21.66;44.69;101641.91;112563;1243;19252;-80
2022/03/05 02:46:25;;;;;;;;;16.00;13.00;;;;;21.67;44.53;101646.21;112441;1245;20256;-81
2022/03/05 02:48:51;;;;;;;;;15.00;14.00;;;;;21.66;44.52;101641.59;112622;1245;19925;-81
2022/03/05 02:51:17;;;;;;;;;13.00;13.00;;;;;21.66;44.48;101643.95;112625;1245;21527;-81
2022/03/05 02:53:43;;;;;;;;;13.00;13.00;;;;;21.66;44.37;101644.50;112630;1244;20076;-81
2022/03/05 02:56:09;;;;;;;;;12.33;12.33;;;;;21.66;44.62;101646.14;112616;1244;23314;-81
2022/03/05 02:58:35;;;;;;;;;11.00;11.00;;;;;21.66;44.39;101649.55;112588;1244;19601;-81
2022/03/05 03:01:01;;;;;;;;;16.00;13.50;;;;;21.66;44.42;101650.89;112637;1245;19969;-81
2022/03/05 03:03:27;;;;;;;;;13.00;13.00;;;;;21.66;44.46;101650.84;112601;1244;19028;-81
2022/03/05 03:05:53;;;;;;;;;13.50;13.00;;;;;21.65;44.33;101648.82;112652;1244;20721;-81
2022/03/05 03:08:18;;;;;;;;;13.50;13.00;;;;;21.65;44.44;101649.16;112619;1245;20038;-81
2022/03/05 03:10:44;;;;;;;;;13.00;12.00;;;;;21.64;44.23;101644.54;112619;1245;19139;-82
2022/03/05 03:13:10;;;;;;;;;15.00;14.00;;;;;21.64;44.26;101651.26;112646;1245;19279;-81
2022/03/05 03:15:36;;;;;;;;;13.00;13.00;;;;;21.64;44.35;101651.23;112579;1245;23588;-81
2022/03/05 03:18:02;;;;;;;;;13.50;12.50;;;;;21.63;44.19;101652.64;112633;1245;19258;-81
2022/03/05 03:20:28;;;;;;;;;12.00;10.00;;;;;21.64;44.27;101652.93;112659;1244;19523;-80
2022/03/05 03:22:54;;;;;;;;;14.00;12.50;;;;;21.63;44.23;101651.52;112628;1245;23796;-82
2022/03/05 03:25:20;;;;;;;;;16.00;13.00;;;;;21.63;44.04;101645.52;112623;1245;21674;-81
2022/03/05 03:27:46;;;;;;;;;13.00;13.00;;;;;21.64;44.23;101650.77;112626;1242;23194;-81
2022/03/05 03:30:12;;;;;;;;;12.00;10.00;;;;;21.64;44.17;101653.45;112704;1245;20006;-81
2022/03/05 03:32:38;;;;;;;;;11.00;11.00;;;;;21.63;44.31;101649.79;112781;1244;18973;-82
2022/03/05 03:35:03;;;;;;;;;14.00;12.00;;;;;21.62;44.27;101651.83;112649;1244;22582;-81
2022/03/05 03:37:31;;;;;;;;;13.00;12.00;;;;;21.63;44.18;101651.33;112620;1244;19947;-80
2022/03/05 03:39:57;;;;;;;;;13.33;11.33;;;;;21.64;44.15;101651.77;112578;1245;19062;-80
2022/03/05 03:42:23;;;;;;;;;13.00;12.00;;;;;21.64;44.11;101653.30;112616;1245;20754;-80
2022/03/05 03:44:48;;;;;;;;;13.50;10.00;;;;;21.64;43.98;101651.50;112641;1244;19942;-81
2022/03/05 03:47:14;;;;;;;;;10.00;10.00;;;;;21.64;43.91;101656.54;112507;1244;22924;-81
2022/03/05 03:49:40;;;;;;;;;13.00;12.33;;;;;21.64;43.95;101655.05;112645;1244;19801;-81
2022/03/05 03:52:06;;;;;;;;;13.00;12.00;;;;;21.64;43.91;101654.57;112695;1245;19999;-80
2022/03/05 03:54:32;;;;;;;;;13.00;12.50;;;;;21.63;44.02;101656.06;112657;1245;19054;-80
2022/03/05 03:56:58;;;;;;;;;13.00;12.50;;;;;21.62;43.99;101659.27;112679;1244;20677;-81
2022/03/05 03:59:24;;;;;;;;;12.00;12.00;;;;;21.63;43.95;101656.48;112695;1244;22748;-81
2022/03/05 04:01:50;;;;;;;;;14.00;12.00;;;;;21.62;44.05;101662.91;112656;1244;19041;-81
2022/03/05 04:04:16;;;;;;;;;13.00;12.50;;;;;21.63;43.84;101666.09;112668;1244;19283;-82
2022/03/05 04:09:31;;;;;;;;;12.33;12.33;;;;;21.62;43.94;101659.50;112071;1249;22800;-81
2022/03/05 04:11:57;;;;;;;;;10.00;10.00;;;;;21.63;43.80;101660.87;111981;1248;23898;-81
2022/03/05 04:14:23;;;;;;;;;13.00;12.00;;;;;21.61;43.89;101659.73;112074;1249;19946;-80
2022/03/05 04:16:49;;;;;;;;;13.00;12.00;;;;;21.61;43.81;101663.02;112058;1248;19107;-81
2022/03/05 04:19:15;;;;;;;;;14.00;13.00;;;;;21.60;43.80;101659.98;112045;1249;19288;-81
2022/03/05 04:21:41;;;;;;;;;12.00;10.00;;;;;21.61;43.66;101658.98;112072;1249;23898;-80
2022/03/05 04:24:06;;;;;;;;;10.00;10.00;;;;;21.60;43.68;101662.54;112082;1248;20079;-81
2022/03/05 04:26:32;;;;;;;;;12.00;10.00;;;;;21.61;43.61;101667.20;112053;1248;19227;-81
2022/03/05 04:28:58;;;;;;;;;9.00;9.00;;;;;21.60;43.59;101666.96;112057;1248;22179;-81
2022/03/05 04:31:24;;;;;;;;;13.00;12.50;;;;;21.59;43.82;101661.20;112048;1249;23412;-81
2022/03/05 04:33:50;;;;;;;;;13.00;12.50;;;;;21.59;43.62;101660.86;112054;1248;19399;-81
2022/03/05 04:36:16;;;;;;;;;11.00;10.00;;;;;21.60;43.58;101666.77;112052;1249;20201;-80
2022/03/05 04:38:42;;;;;;;;;12.67;10.67;;;;;21.59;43.67;101665.34;112057;1248;19208;-81
2022/03/05 04:41:08;;;;;;;;;13.00;12.00;;;;;21.59;43.58;101671.44;112034;1249;19312;-81
2022/03/05 04:43:34;;;;;;;;;10.00;10.00;;;;;21.59;43.75;101668.09;112010;1248;20144;-81
2022/03/05 04:46:00;;;;;;;;;12.00;11.00;;;;;21.59;43.79;101665.95;112175;1245;23254;-81
2022/03/05 04:48:26;;;;;;;;;13.00;12.00;;;;;21.59;43.72;101668.47;112649;1245;19211;-80
2022/03/05 04:50:52;;;;;;;;;12.00;12.00;;;;;21.59;43.62;101667.55;112619;1244;19956;-81
2022/03/05 04:53:19;;;;;;;;;13.00;12.00;;;;;21.59;43.71;101666.45;112637;1245;20342;-81
2022/03/05 04:55:45;;;;;;;;;12.00;9.33;;;;;21.59;43.66;101668.09;112676;1245;19622;-82
2022/03/05 04:58:12;;;;;;;;;12.50;10.00;;;;;21.60;43.53;101670.20;112619;1245;22088;-84
2022/03/05 05:00:37;;;;;;;;;11.33;10.00;;;;;21.59;43.74;101672.33;112664;1245;19206;-81
2022/03/05 05:03:03;;;;;;;;;13.50;12.00;;;;;21.59;43.61;101669.73;112672;1244;20064;-84
2022/03/05 05:05:29;;;;;;;;;12.00;10.00;;;;;21.58;43.60;101670.71;112677;1244;24058;-84
2022/03/05 05:07:55;;;;;;;;;13.00;12.00;;;;;21.59;43.43;101675.07;112672;1245;19048;-82
2022/03/05 05:10:21;;;;;;;;;12.50;12.00;;;;;21.59;43.44;101677.73;112647;1245;19406;-80
2022/03/05 05:12:47;;;;;;;;;14.00;12.00;;;;;21.59;43.40;101680.27;112647;1244;22259;-81
2022/03/05 05:15:13;;;;;;;;;10.00;10.00;;;;;21.59;43.30;101679.95;112632;1244;22240;-81
2022/03/05 05:17:39;;;;;;;;;13.00;12.00;;;;;21.59;43.38;101679.38;112612;1244;19655;-81
2022/03/05 05:20:05;;;;;;;;;13.00;12.00;;;;;21.59;43.46;101676.52;112664;1245;21493;-81
2022/03/05 05:22:32;;;;;;;;;10.00;10.00;;;;;21.59;43.42;101682.63;112640;1245;22020;-81
2022/03/05 05:24:58;;;;;;;;;12.00;12.00;;;;;21.59;43.45;101683.40;112622;1245;19560;-84
2022/03/05 05:27:24;;;;;;;;;13.00;12.00;;;;;21.59;43.32;101688.89;112606;1244;21480;-83
2022/03/05 05:29:50;;;;;;;;;13.00;12.00;;;;;21.57;43.36;101689.01;112618;1245;19354;-82
2022/03/05 05:32:16;;;;;;;;;13.50;13.00;;;;;21.57;43.39;101687.08;112642;1244;19398;-82
2022/03/05 05:34:41;;;;;;;;;10.00;9.00;;;;;21.57;43.21;101685.78;112678;1245;24947;-82
2022/03/05 05:37:07;;;;;;;;;13.00;12.50;;;;;21.58;43.12;101686.59;112642;1245;19041;-83
2022/03/05 05:39:33;;;;;;;;;14.00;13.00;;;;;21.57;43.28;101681.42;112640;1245;21834;-83
2022/03/05 05:41:59;;;;;;;;;10.00;10.00;;;;;21.57;43.17;101681.98;112667;1245;19904;-83
2022/03/05 05:44:25;;;;;;;;;13.00;12.00;;;;;21.57;43.34;101689.23;112647;1245;19084;-82
2022/03/05 05:46:51;;;;;;;;;15.00;13.00;;;;;21.57;43.32;101693.09;112617;1245;19292;-81
2022/03/05 05:49:17;;;;;;;;;13.00;12.00;;;;;21.57;43.25;101695.01;112672;1245;21779;-81
2022/03/05 05:51:43;;;;;;;;;17.00;13.00;;;;;21.57;43.36;101697.04;112667;1245;19071;-82
2022/03/05 05:54:09;;;;;;;;;15.00;9.00;;;;;21.57;43.20;101700.47;112664;1245;23324;-81
2022/03/05 05:56:35;;;;;;;;;15.00;12.50;;;;;21.58;43.23;101702.77;112647;1245;19972;-82
2022/03/05 05:59:00;;;;;;;;;12.00;11.00;;;;;21.61;43.14;101705.74;112632;1244;19084;-82
2022/03/05 06:01:26;;;;;;;;;13.00;10.00;;;;;21.65;43.29;101706.11;112623;1245;23085;-83
2022/03/05 06:03:52;;;;;;;;;13.50;13.00;;;;;21.69;43.37;101706.78;112606;1244;19942;-83
2022/03/05 06:06:18;;;;;;;;;16.00;13.50;;;;;21.72;43.65;101706.45;112604;1244;20668;-83
2022/03/05 06:08:44;;;;;;;;;12.50;11.00;;;;;21.73;43.85;101704.67;112613;1245;19379;-84
2022/03/05 06:11:10;;;;;;;;;10.00;10.00;;;;;21.74;43.94;101703.54;112649;1245;20200;-80
2022/03/05 06:13:36;;;;;;;;;16.00;13.00;;;;;21.74;43.93;101708.77;112633;1245;19582;-81
2022/03/05 06:16:02;;;;;;;;;9.00;9.00;;;;;21.73;43.91;101708.15;112638;1245;20003;-81
2022/03/05 06:18:28;;;;;;;;;12.50;10.00;;;;;21.72;43.90;101712.08;112616;1245;20068;-81
2022/03/05 06:20:54;;;;;;;;;13.00;13.00;;;;;21.70;43.67;101714.51;112571;1244;19102;-83
2022/03/05 06:23:19;;;;;;;;;13.50;12.00;;;;;21.67;43.79;101715.95;112638;1245;19614;-82
2022/03/05 06:25:45;;;;;;;;;14.00;12.00;;;;;21.65;43.76;101719.04;112611;1244;20283;-82
2022/03/05 06:28:11;;;;;;;;;13.00;12.00;;;;;21.65;43.51;101720.65;112641;1244;19069;-82
2022/03/05 06:30:37;;;;;;;;;12.50;12.00;;;;;21.65;43.71;101725.15;112627;1245;21895;-81
2022/03/05 06:33:03;;;;;;;;;11.00;11.00;;;;;21.64;43.87;101723.28;112608;1245;21968;-81
2022/03/05 06:35:29;;;;;;;;;13.50;12.50;;;;;21.63;43.91;101728.09;112640;1245;19121;-81
2022/03/05 06:37:55;;;;;;;;;14.00;13.00;;;;;21.63;43.75;101734.64;112664;1245;22622;-81
2022/03/05 06:40:21;;;;;;;;;12.50;12.00;;;;;21.64;43.73;101739.32;112590;1245;22531;-81
2022/03/05 06:42:47;;;;;;;;;10.00;9.00;;;;;21.64;43.82;101741.67;112634;1245;19092;-83
2022/03/05 06:45:13;;;;;;;;;11.33;11.33;;;;;21.64;43.61;101738.05;112574;1245;19562;-82
2022/03/05 06:47:38;;;;;;;;;14.00;13.00;;;;;21.64;43.68;101740.40;112409;1244;23420;-82
2022/03/05 06:50:04;;;;;;;;;13.50;12.00;;;;;21.64;43.55;101738.23;112626;1245;19097;-82
2022/03/05 06:52:30;;;;;;;;;14.00;13.00;;;;;21.64;43.64;101738.58;112655;1244;19393;-82
2022/03/05 06:54:57;;;;;;;;;12.50;12.00;;;;;21.65;43.78;101740.48;112634;1245;19882;-82
2022/03/05 06:57:23;;;;;;;;;16.33;15.33;;;;;21.64;43.57;101740.92;112701;1245;19312;-83
2022/03/05 06:59:49;;;;;;;;;11.00;9.50;;;;;21.64;43.67;101741.71;112612;1245;19991;-84
2022/03/05 07:02:15;;;;;;;;;13.00;12.00;;;;;21.67;43.62;101744.95;112720;1245;24001;-83
2022/03/05 07:04:41;;;;;;;;;12.00;12.00;;;;;21.73;43.52;101745.23;112618;1244;19113;-82
2022/03/05 07:07:07;;;;;;;;;14.00;13.33;;;;;21.76;43.83;101742.92;112574;1244;22636;-82
2022/03/05 07:09:33;;;;;;;;;13.00;13.00;;;;;21.75;44.12;101746.84;112635;1244;20254;-83
2022/03/05 07:11:59;;;;;;;;;10.00;10.00;;;;;21.75;44.20;101746.51;112631;1245;19128;-83
2022/03/05 07:14:24;;;;;;;;;12.00;10.00;;;;;21.73;44.30;101746.14;112669;1244;19250;-82
2022/03/05 07:16:50;;;;;;;;;13.50;12.00;;;;;21.72;44.49;101745.59;112629;1245;20153;-83
2022/03/05 07:19:16;;;;;;;;;12.00;10.00;;;;;21.70;44.33;101745.64;112636;1245;21713;-82
2022/03/05 07:21:42;;;;;;;;;12.50;12.00;;;;;21.69;44.40;101744.81;112608;1245;19114;-82
2022/03/05 07:24:08;;;;;;;;;14.00;13.00;;;;;21.63;44.37;101749.18;112608;1244;19947;-82
2022/03/05 07:26:34;;;;;;;;;17.00;14.00;;;;;21.61;44.26;101751.59;112506;1244;19264;-81
2022/03/05 07:29:00;;;;;;;;;14.00;12.00;;;;;21.63;43.92;101751.08;112589;1244;20693;-83
2022/03/05 07:31:26;;;;;;;;;13.00;13.00;;;;;21.64;43.92;101751.30;112662;1245;20739;-82
2022/03/05 07:33:52;;;;;;;;;12.33;12.00;;;;;21.65;43.86;101753.05;112584;1245;20134;-82
2022/03/05 07:36:19;;;;;;;;;16.00;13.00;;;;;21.64;44.02;101753.28;112669;1245;19204;-81
2022/03/05 07:38:45;;;;;;;;;13.00;12.00;;;;;21.64;43.94;101756.95;112641;1245;20227;-85
2022/03/05 07:41:15;;;;;;;;;14.00;13.00;;;;;21.69;44.24;101761.54;112651;1245;23065;-82
2022/03/05 07:43:50;;;;;;;;;15.33;13.33;;;;;21.74;44.20;101761.91;112613;1243;19420;-84
2022/03/05 07:46:26;;;;;;;;;16.00;12.50;;;;;21.77;44.25;101762.52;112782;1245;21746;-82
2022/03/05 07:48:52;;;;;;;;;10.00;10.00;;;;;21.80;44.62;101766.56;112474;1245;19333;-82
2022/03/05 07:51:18;;;;;;;;;16.00;14.00;;;;;21.82;44.61;101767.91;112604;1245;19472;-82
2022/03/05 07:53:44;;;;;;;;;13.50;13.50;;;;;21.89;44.80;101769.08;112631;1245;23175;-84
2022/03/05 07:56:10;;;;;;;;;14.00;13.00;;;;;21.88;45.14;101767.56;112442;1245;23045;-82
2022/03/05 07:58:35;;;;;;;;;17.00;14.00;;;;;21.84;45.36;101769.73;112541;1244;21683;-81
2022/03/05 08:01:01;;;;;;;;;15.50;14.00;;;;;21.82;45.01;101769.45;112614;1245;20606;-82
2022/03/05 08:03:27;;;;;;;;;25.00;22.50;;;;;21.84;44.89;101769.71;112633;1244;24374;-81
2022/03/05 08:05:53;;;;;;;;;34.50;33.50;;;;;21.79;44.02;101770.28;112587;1245;22723;-83
2022/03/05 08:08:19;;;;;;;;;40.50;35.00;;;;;21.76;42.89;101772.81;112640;1245;19901;-82
2022/03/05 08:10:45;;;;;;;;;26.00;21.50;;;;;21.75;43.13;101768.91;112687;1245;19914;-82
2022/03/05 08:13:12;;;;;;;;;34.00;30.50;;;;;21.76;43.80;101771.31;112675;1244;19976;-83
2022/03/05 08:15:38;;;;;;;;;33.00;29.00;;;;;21.79;43.51;101769.32;112626;1245;20349;-83
2022/03/05 08:18:04;;;;;;;;;35.50;32.00;;;;;21.84;43.47;101770.26;112720;1245;19618;-82
2022/03/05 08:20:30;;;;;;;;;57.00;41.50;;;;;21.87;43.88;101769.42;112726;1245;19520;-82
2022/03/05 08:22:56;;;;;;;;;49.50;42.00;;;;;21.89;43.83;101768.00;112626;1245;21622;-82
2022/03/05 08:25:22;;;;;;;;;49.00;40.50;;;;;21.89;44.33;101775.07;112662;1245;19244;-81
2022/03/05 08:27:48;;;;;;;;;59.33;47.00;;;;;21.90;44.51;101770.58;112681;1245;21076;-84
2022/03/05 08:30:14;;;;;;;;;60.67;46.67;;;;;21.94;44.61;101770.88;112705;1245;23690;-83
2022/03/05 08:32:40;;;;;;;;;64.00;48.33;;;;;21.97;44.93;101777.16;112662;1245;18956;-82
2022/03/05 08:35:06;;;;;;;;;63.00;49.33;;;;;21.99;44.87;101778.34;112763;1244;19216;-82
2022/03/05 08:37:32;;;;;;;;;62.67;48.67;;;;;22.03;44.96;101778.33;112665;1245;20015;-83
2022/03/05 08:39:58;;;;;;;;;72.00;54.00;;;;;22.02;45.25;101778.73;112693;1245;19282;-83
2022/03/05 08:42:24;;;;;;;;;67.50;53.00;;;;;22.06;45.81;101780.77;112667;1245;23008;-83
2022/03/05 08:44:50;;;;;;;;;70.00;52.33;;;;;22.09;45.75;101784.30;112628;1244;20357;-84
2022/03/05 08:47:16;;;;;;;;;68.33;51.00;;;;;22.09;45.63;101784.77;112626;1245;19041;-83
2022/03/05 08:49:43;;;;;;;;;70.00;51.67;;;;;22.09;45.59;101786.59;112567;1245;20997;-85
2022/03/05 08:52:09;;;;;;;;;70.67;52.67;;;;;22.10;45.98;101790.38;112639;1244;20320;-86
2022/03/05 08:54:46;;;;;;;;;71.67;54.33;;;;;22.09;45.77;101789.86;113108;1245;22372;-85
2022/03/05 08:57:13;;;;;;;;;65.00;49.67;;;;;22.07;45.69;101789.17;112308;1245;21014;-85
2022/03/05 08:59:42;;;;;;;;;63.00;49.00;;;;;22.07;45.35;101790.69;112654;1245;22815;-87
2022/03/05 09:02:08;;;;;;;;;72.33;53.00;;;;;22.05;45.13;101792.92;112597;1245;20457;-82
2022/03/05 09:04:34;;;;;;;;;68.00;52.33;;;;;22.05;45.70;101796.15;112436;1246;22673;-86
2022/03/05 09:07:00;;;;;;;;;65.67;49.33;;;;;22.04;45.81;101793.86;112662;1244;21968;-85
2022/03/05 09:09:26;;;;;;;;;69.00;51.00;;;;;22.02;45.52;101791.74;112479;1245;20017;-84
2022/03/05 09:11:52;;;;;;;;;66.00;51.00;;;;;21.99;45.52;101791.64;112482;1245;23060;-84
2022/03/05 09:14:18;;;;;;;;;66.67;51.33;;;;;21.97;45.69;101793.65;112476;1245;21457;-84
2022/03/05 09:16:44;;;;;;;;;67.33;51.00;;;;;21.99;45.76;101792.36;112607;1245;21770;-84
2022/03/05 09:19:10;;;;;;;;;51.33;42.67;;;;;21.91;45.52;101795.64;112573;1245;19952;-85
2022/03/05 09:21:36;;;;;;;;;55.00;42.67;;;;;21.71;44.78;101793.48;112603;1244;20217;-85
2022/03/05 09:24:02;;;;;;;;;59.00;46.33;;;;;21.62;43.55;101797.91;112613;1245;20271;-85
2022/03/05 09:26:28;;;;;;;;;60.67;46.33;;;;;21.61;42.78;101797.39;112625;1244;19266;-84
2022/03/05 09:28:54;;;;;;;;;58.67;45.67;;;;;21.64;43.21;101802.24;112593;1244;22038;-85
2022/03/05 09:31:20;;;;;;;;;54.33;43.00;;;;;21.67;43.24;101801.73;112614;1244;22185;-84
2022/03/05 09:33:45;;;;;;;;;57.67;44.00;;;;;21.69;43.37;101804.59;112441;1245;23056;-87
2022/03/05 09:36:11;;;;;;;;;53.67;41.33;;;;;21.76;43.50;101805.90;112595;1244;21677;-85
2022/03/05 09:38:37;;;;;;;;;55.33;43.33;;;;;21.83;43.57;101808.85;112606;1245;19064;-84
2022/03/05 09:41:03;;;;;;;;;53.50;43.00;;;;;21.87;43.57;101802.74;112606;1245;19295;-84
2022/03/05 09:43:29;;;;;;;;;57.67;42.67;;;;;21.88;44.07;101806.85;112446;1245;20254;-86
2022/03/05 09:45:55;;;;;;;;;59.00;43.67;;;;;21.90;44.45;101806.98;112580;1245;19000;-85
2022/03/05 09:48:21;;;;;;;;;52.33;44.00;;;;;21.92;44.41;101808.17;112637;1244;19222;-83
2022/03/05 09:50:48;;;;;;;;;48.00;41.00;;;;;21.97;44.89;101810.13;112578;1245;20365;-85
2022/03/05 09:53:13;;;;;;;;;54.67;43.00;;;;;21.95;45.03;101807.73;112571;1245;21071;-85
2022/03/05 09:55:39;;;;;;;;;43.00;38.33;;;;;21.94;45.19;101804.21;112370;1246;22191;-84
2022/03/05 09:58:05;;;;;;;;;63.00;43.00;;;;;21.95;45.24;101806.33;112431;1245;23715;-86
2022/03/05 10:00:31;;;;;;;;;48.67;40.33;;;;;21.91;45.49;101809.40;112598;1245;19043;-86
2022/03/05 10:02:59;;;;;;;;;46.00;40.50;;;;;21.87;45.41;101807.47;112734;1244;19433;-86
2022/03/05 10:05:26;;;;;;;;;46.00;40.00;;;;;21.85;45.21;101805.27;112719;1244;20182;-85
2022/03/05 10:07:52;;;;;;;;;53.00;42.50;;;;;21.84;45.22;101808.64;112696;1244;22026;-85
2022/03/05 10:10:18;;;;;;;;;52.67;42.00;;;;;21.86;45.41;101803.35;112445;1244;19908;-84
2022/03/05 10:12:44;;;;;;;;;51.67;40.33;;;;;21.89;45.53;101808.39;112470;1244;20371;-84
2022/03/05 10:15:10;;;;;;;;;49.00;38.50;;;;;21.90;45.39;101810.79;112462;1244;25454;-83
2022/03/05 10:17:36;;;;;;;;;41.00;38.00;;;;;21.90;45.07;101815.77;112465;1245;23117;-83
2022/03/05 10:20:02;;;;;;;;;48.00;40.00;;;;;21.87;45.06;101815.07;112580;1245;23254;-84
2022/03/05 10:22:28;;;;;;;;;51.00;40.00;;;;;21.83;45.03;101810.60;112579;1245;19063;-83
2022/03/05 10:24:54;;;;;;;;;43.00;37.00;;;;;21.81;44.98;101813.77;112608;1244;19207;-84
2022/03/05 10:27:20;;;;;;;;;40.67;34.33;;;;;21.78;45.06;101813.36;112639;1245;20767;-83
2022/03/05 10:29:46;;;;;;;;;39.50;35.00;;;;;21.78;45.17;101815.71;112609;1245;19115;-83
2022/03/05 10:32:11;;;;;;;;;45.00;36.50;;;;;21.76;45.08;101810.96;112649;1245;19411;-83
2022/03/05 10:34:37;;;;;;;;;37.00;36.00;;;;;21.76;45.08;101811.75;112621;1244;22857;-83
2022/03/05 10:37:03;;;;;;;;;45.00;36.67;;;;;21.74;45.08;101814.10;112629;1245;19059;-83
2022/03/05 10:39:29;;;;;;;;;44.33;37.67;;;;;21.74;44.88;101814.83;112631;1244;20307;-83
2022/03/05 10:41:56;;;;;;;;;43.33;38.00;;;;;21.74;44.75;101814.88;112604;1245;23908;-84
2022/03/05 10:44:21;;;;;;;;;41.00;30.50;;;;;21.74;44.80;101813.22;112635;1245;19021;-82
2022/03/05 10:46:47;;;;;;;;;35.00;32.33;;;;;21.74;44.78;101808.34;112639;1245;20814;-84
2022/03/05 10:49:13;;;;;;;;;41.50;34.00;;;;;21.73;44.66;101806.54;112691;1244;22752;-84
2022/03/05 10:51:39;;;;;;;;;42.33;35.00;;;;;21.74;44.60;101806.80;112576;1245;19640;-83
2022/03/05 10:54:05;;;;;;;;;42.50;36.50;;;;;21.74;44.59;101806.42;112598;1245;21662;-84
2022/03/05 10:56:31;;;;;;;;;50.67;39.67;;;;;21.75;44.53;101801.95;112533;1244;19927;-83
2022/03/05 10:58:57;;;;;;;;;40.00;33.50;;;;;21.75;44.46;101796.55;112708;1245;19313;-84